Time;durP1;ratioP1;P1;durP2;ratioP2;P2;SDS_P1;SDS_P2;PMS_P1;PMS_P2;Temp;Humidity;BMP_temperature;BMP_pressure;BME280_temperature;BME280_humidity;BME280_pressure;Samples;Min_cycle;Max_cycle;Signal;HPM_P1;HPM_P2
2021/05/28 00:01:05;;;;;;;17.57;8.53;;;;;;;18.37;79.12;100434.25;1714344;83;21549;-69
2021/05/28 00:03:31;;;;;;;17.25;8.43;;;;;;;18.39;79.12;100431.34;1699785;83;21555;-68
2021/05/28 00:05:58;;;;;;;16.32;8.48;;;;;;;18.42;79.10;100435.75;1708179;82;21361;-69
2021/05/28 00:08:24;;;;;;;14.75;8.15;;;;;;;18.43;79.06;100433.33;1758898;80;21003;-69
2021/05/28 00:10:51;;;;;;;16.80;8.70;;;;;;;18.43;79.06;100430.63;1763876;81;21730;-69
2021/05/28 00:13:19;;;;;;;16.97;8.28;;;;;;;18.42;79.14;100432.23;1763523;80;21585;-69
2021/05/28 00:15:47;;;;;;;14.47;8.13;;;;;;;18.40;79.22;100431.09;1743974;80;20979;-69
2021/05/28 00:18:14;;;;;;;18.37;8.35;;;;;;;18.38;79.27;100422.45;1743222;82;21027;-69
2021/05/28 00:20:41;;;;;;;16.52;8.33;;;;;;;18.36;79.31;100422.36;1743260;82;20943;-69
2021/05/28 00:23:07;;;;;;;15.53;8.63;;;;;;;18.31;79.36;100424.41;1750203;80;21063;-69
2021/05/28 00:25:34;;;;;;;22.90;12.47;;;;;;;18.27;79.43;100425.91;1765194;80;21028;-69
2021/05/28 00:28:00;;;;;;;17.55;8.60;;;;;;;18.24;79.47;100423.69;1730685;82;21035;-69
2021/05/28 00:30:28;;;;;;;16.27;8.30;;;;;;;18.23;79.50;100428.24;1764368;80;21063;-69
2021/05/28 00:32:55;;;;;;;18.67;8.75;;;;;;;18.22;79.56;100430.63;1757708;80;21054;-66
2021/05/28 00:35:21;;;;;;;14.58;8.53;;;;;;;18.21;79.57;100428.98;1764564;80;21488;-67
2021/05/28 00:37:48;;;;;;;13.80;8.13;;;;;;;18.21;79.60;100422.25;1760771;80;21114;-67
2021/05/28 00:40:17;;;;;;;12.93;7.90;;;;;;;18.20;79.56;100424.64;1765473;80;21512;-69
2021/05/28 00:42:44;;;;;;;14.23;7.78;;;;;;;18.23;79.55;100424.73;1763997;80;21513;-70
2021/05/28 00:45:12;;;;;;;12.05;7.50;;;;;;;18.22;79.55;100415.83;1762421;80;21570;-69
2021/05/28 00:47:39;;;;;;;13.70;8.05;;;;;;;18.25;79.54;100410.50;1732780;82;21064;-68
2021/05/28 00:50:06;;;;;;;15.50;7.67;;;;;;;18.23;79.57;100404.02;1767369;80;20867;-69
2021/05/28 00:52:32;;;;;;;13.80;8.28;;;;;;;18.22;79.68;100402.89;1755423;80;21117;-67
2021/05/28 00:54:59;;;;;;;16.30;8.10;;;;;;;18.19;79.76;100401.49;1764660;80;21106;-67
2021/05/28 00:57:27;;;;;;;16.02;8.00;;;;;;;18.15;79.89;100403.52;1729603;82;20992;-65
2021/05/28 00:59:57;;;;;;;12.78;8.25;;;;;;;18.11;80.07;100401.80;1749794;80;21709;-70
2021/05/28 01:02:26;;;;;;;14.65;9.40;;;;;;;18.07;80.27;100395.23;1700775;83;21007;-64
2021/05/28 01:04:53;;;;;;;13.72;8.90;;;;;;;18.07;80.46;100397.92;1767251;80;21094;-67
2021/05/28 01:07:21;;;;;;;11.25;7.87;;;;;;;18.06;80.60;100400.83;1701960;84;21051;-68
2021/05/28 01:09:49;;;;;;;13.88;9.43;;;;;;;18.02;80.65;100403.16;1682383;84;21130;-65
2021/05/28 01:12:15;;;;;;;26.48;9.75;;;;;;;17.98;80.82;100401.14;1750334;80;21093;-66
2021/05/28 01:14:43;;;;;;;14.10;8.35;;;;;;;17.93;80.99;100395.64;1770382;80;21037;-67
2021/05/28 01:17:10;;;;;;;10.03;7.90;;;;;;;17.88;81.10;100389.59;1744081;80;21022;-66
2021/05/28 01:19:37;;;;;;;10.00;8.10;;;;;;;17.84;81.27;100392.95;1750976;80;21042;-66
2021/05/28 01:22:05;;;;;;;15.48;9.63;;;;;;;17.83;81.49;100398.84;1750596;80;21030;-66
2021/05/28 01:24:32;;;;;;;12.70;7.67;;;;;;;17.85;81.64;100397.29;1742991;82;21085;-66
2021/05/28 01:27:00;;;;;;;15.05;8.48;;;;;;;17.86;81.77;100394.91;1742863;82;21114;-66
2021/05/28 01:29:26;;;;;;;9.73;8.08;;;;;;;17.86;81.73;100393.56;1742840;82;20987;-65
2021/05/28 01:31:53;;;;;;;10.45;8.18;;;;;;;17.84;81.76;100393.77;1737889;82;21140;-64
2021/05/28 01:34:19;;;;;;;11.43;7.22;;;;;;;17.88;81.91;100389.59;1717683;82;21065;-64
2021/05/28 01:36:47;;;;;;;13.25;8.10;;;;;;;17.96;81.87;100380.38;1717612;83;20957;-65
2021/05/28 01:39:14;;;;;;;14.18;8.08;;;;;;;17.96;81.85;100381.73;1717558;83;21005;-65
2021/05/28 01:41:41;;;;;;;19.73;8.35;;;;;;;17.97;81.84;100377.48;1717526;83;21041;-66
2021/05/28 01:44:10;;;;;;;27.82;8.33;;;;;;;17.98;81.89;100376.93;1717657;83;21067;-65
2021/05/28 01:46:37;;;;;;;24.67;7.92;;;;;;;18.00;81.81;100376.20;1717608;83;21092;-66
2021/05/28 01:49:04;;;;;;;15.38;8.60;;;;;;;17.97;81.98;100373.45;1717566;83;21083;-65
2021/05/28 01:51:31;;;;;;;10.63;8.03;;;;;;;18.00;82.09;100379.71;1717607;83;21459;-65
2021/05/28 01:53:58;;;;;;;11.08;7.65;;;;;;;18.08;82.09;100383.95;1717748;83;20926;-65
2021/05/28 01:56:25;;;;;;;12.20;7.97;;;;;;;18.12;82.03;100378.42;1717598;82;21455;-63
2021/05/28 01:58:53;;;;;;;16.40;8.10;;;;;;;18.13;81.96;100378.17;1717498;83;21037;-64
2021/05/28 02:01:20;;;;;;;10.80;8.20;;;;;;;18.12;81.90;100375.72;1717633;83;21101;-64
2021/05/28 02:03:47;;;;;;;12.23;8.10;;;;;;;18.10;81.90;100372.42;1717624;82;20958;-66
2021/05/28 02:06:13;;;;;;;14.93;8.28;;;;;;;18.08;81.93;100375.36;1717637;83;20954;-64
2021/05/28 02:08:41;;;;;;;13.03;9.25;;;;;;;18.09;81.91;100372.95;1717644;83;21562;-65
2021/05/28 02:11:07;;;;;;;14.50;8.75;;;;;;;18.11;81.97;100374.08;1717585;83;20966;-64
2021/05/28 02:13:35;;;;;;;13.18;8.88;;;;;;;18.14;81.95;100365.54;1717559;82;21088;-65
2021/05/28 02:16:03;;;;;;;11.20;8.10;;;;;;;18.13;81.98;100367.41;1717531;83;20966;-65
2021/05/28 02:18:30;;;;;;;14.28;8.83;;;;;;;18.15;81.98;100363.16;1717654;82;21511;-66
2021/05/28 02:20:57;;;;;;;13.53;8.33;;;;;;;18.15;82.01;100363.16;1717567;83;21443;-65
2021/05/28 02:23:23;;;;;;;14.53;8.38;;;;;;;18.13;82.06;100354.47;1717558;83;21558;-65
2021/05/28 02:25:50;;;;;;;10.98;8.10;;;;;;;18.12;82.11;100357.72;1717605;83;21057;-64
2021/05/28 02:28:17;;;;;;;13.98;8.65;;;;;;;18.10;82.17;100350.91;1717609;83;21097;-65
2021/05/28 02:30:43;;;;;;;13.05;8.58;;;;;;;18.09;82.26;100357.36;1717509;83;20984;-66
2021/05/28 02:33:10;;;;;;;11.68;8.43;;;;;;;18.12;82.47;100355.55;1717528;82;20994;-65
2021/05/28 02:35:38;;;;;;;12.03;8.25;;;;;;;18.18;82.52;100355.45;1717732;83;20982;-65
2021/05/28 02:38:04;;;;;;;10.60;8.53;;;;;;;18.17;82.55;100363.21;1717622;83;21850;-66
2021/05/28 02:40:31;;;;;;;12.07;7.92;;;;;;;18.17;82.66;100359.17;1717421;83;21594;-65
2021/05/28 02:42:57;;;;;;;11.33;7.62;;;;;;;18.17;82.70;100358.35;1717669;83;21040;-65
2021/05/28 02:45:24;;;;;;;12.85;7.53;;;;;;;18.19;82.85;100366.52;1717653;82;21013;-66
2021/05/28 02:47:50;;;;;;;10.98;8.08;;;;;;;18.25;82.87;100364.76;1717613;82;21026;-65
2021/05/28 02:50:17;;;;;;;10.08;8.65;;;;;;;18.29;82.90;100367.28;1717667;83;21033;-66
2021/05/28 02:52:43;;;;;;;10.63;8.20;;;;;;;18.35;82.91;100358.84;1717461;83;21038;-66
2021/05/28 02:55:11;;;;;;;10.63;8.33;;;;;;;18.40;82.84;100357.59;1717468;83;20919;-66
2021/05/28 02:57:37;;;;;;;9.95;8.95;;;;;;;18.42;82.84;100359.55;1717590;83;21002;-66
2021/05/28 03:00:06;;;;;;;10.98;8.53;;;;;;;18.45;82.82;100361.25;1717640;83;21440;-66
2021/05/28 03:02:32;;;;;;;11.40;8.83;;;;;;;18.48;82.82;100366.17;1717684;83;21075;-66
2021/05/28 03:04:59;;;;;;;9.58;8.20;;;;;;;18.55;82.74;100368.78;1717365;83;21704;-66
2021/05/28 03:07:25;;;;;;;12.30;8.90;;;;;;;18.58;82.68;100362.41;1717539;83;21459;-65
2021/05/28 03:09:53;;;;;;;11.90;9.03;;;;;;;18.58;82.64;100375.87;1717445;83;21590;-65
2021/05/28 03:12:20;;;;;;;12.70;8.58;;;;;;;18.59;82.64;100376.17;1717541;83;21667;-67
2021/05/28 03:14:47;;;;;;;11.78;8.98;;;;;;;18.64;82.59;100379.52;1717615;83;21107;-66
2021/05/28 03:17:13;;;;;;;13.28;9.30;;;;;;;18.68;82.52;100371.28;1717635;83;21547;-67
2021/05/28 03:19:47;;;;;;;12.68;9.10;;;;;;;18.77;82.42;100365.83;1717665;83;21591;-67
2021/05/28 03:25:04;;;;;;;39.53;28.52;;;;;;;18.96;81.93;100355.80;1717745;83;20993;-67
2021/05/28 03:27:30;;;;;;;18.50;11.20;;;;;;;18.99;81.66;100353.97;1717752;83;21141;-64
2021/05/28 03:29:56;;;;;;;13.40;9.80;;;;;;;18.98;81.48;100361.23;1717811;83;21069;-65
2021/05/28 03:32:24;;;;;;;11.80;9.65;;;;;;;18.94;81.51;100355.19;1720000;81;21069;-64
2021/05/28 03:34:52;;;;;;;13.88;9.20;;;;;;;18.96;81.38;100357.94;1743095;82;21169;-65
2021/05/28 03:37:20;;;;;;;11.43;9.70;;;;;;;18.99;81.23;100353.97;1743058;82;21618;-66
2021/05/28 03:39:48;;;;;;;14.38;9.60;;;;;;;19.04;81.06;100352.72;1743030;82;21089;-66
2021/05/28 03:42:14;;;;;;;10.45;8.65;;;;;;;19.15;80.73;100362.67;1761797;80;21098;-66
2021/05/28 03:44:41;;;;;;;12.68;9.28;;;;;;;19.27;80.41;100359.97;1752950;81;21071;-65
2021/05/28 03:47:08;;;;;;;13.98;9.20;;;;;;;19.39;79.98;100367.52;1697878;84;21651;-65
2021/05/28 03:49:35;;;;;;;17.00;9.78;;;;;;;19.46;79.58;100362.32;1769533;80;21027;-65
2021/05/28 03:52:04;;;;;;;16.70;10.13;;;;;;;19.53;79.23;100364.88;1777536;79;21110;-67
2021/05/28 03:54:30;;;;;;;12.30;9.70;;;;;;;19.55;79.04;100366.83;1768601;80;21579;-66
2021/05/28 03:56:57;;;;;;;12.40;9.55;;;;;;;19.61;78.74;100369.38;1768680;81;21489;-66
2021/05/28 03:59:23;;;;;;;12.68;9.50;;;;;;;19.64;78.36;100367.55;1766020;80;21606;-65
2021/05/28 04:01:50;;;;;;;23.35;9.85;;;;;;;19.68;78.02;100369.23;1678787;85;21059;-64
2021/05/28 04:04:16;;;;;;;14.05;9.85;;;;;;;19.68;77.72;100372.77;1742919;82;21140;-62
2021/05/28 04:06:43;;;;;;;14.65;10.30;;;;;;;19.70;77.63;100369.31;1766491;80;21123;-63
2021/05/28 04:09:09;;;;;;;13.80;10.00;;;;;;;19.76;77.41;100365.34;1773746;80;21586;-64
2021/05/28 04:11:36;;;;;;;13.80;10.20;;;;;;;19.77;77.24;100368.34;1771832;80;21003;-64
2021/05/28 04:14:03;;;;;;;17.25;10.30;;;;;;;19.81;77.03;100361.41;1729511;83;21098;-63
2021/05/28 04:16:30;;;;;;;18.92;9.98;;;;;;;19.81;76.76;100364.11;1699312;84;21144;-66
2021/05/28 04:18:56;;;;;;;17.85;10.78;;;;;;;19.80;76.55;100359.77;1768659;81;21164;-66
2021/05/28 04:21:25;;;;;;;13.08;9.13;;;;;;;19.78;76.41;100357.33;1729221;83;21634;-66
2021/05/28 04:23:52;;;;;;;12.65;9.85;;;;;;;19.75;76.24;100361.03;1699024;84;21081;-65
2021/05/28 04:26:19;;;;;;;13.80;10.08;;;;;;;19.70;76.10;100358.52;1768767;81;21031;-65
2021/05/28 04:28:49;;;;;;;15.80;10.65;;;;;;;19.65;76.09;100360.28;1768672;80;21234;-65
2021/05/28 04:31:20;;;;;;;14.07;10.58;;;;;;;19.60;76.13;100359.64;1729292;83;20976;-66
2021/05/28 04:33:48;;;;;;;19.02;14.68;;;;;;;19.58;76.14;100360.95;1680461;84;21004;-66
2021/05/28 04:36:14;;;;;;;19.80;15.53;;;;;;;19.59;76.12;100353.16;1723061;83;20928;-66
2021/05/28 04:38:41;;;;;;;16.07;14.38;;;;;;;19.60;76.10;100361.55;1722624;83;20992;-66
2021/05/28 04:41:08;;;;;;;14.73;12.28;;;;;;;19.58;76.17;100356.91;1693823;84;21825;-66
2021/05/28 04:43:35;;;;;;;19.85;12.70;;;;;;;19.55;76.23;100356.04;1710933;83;21299;-65
2021/05/28 04:46:02;;;;;;;15.28;11.85;;;;;;;19.56;76.40;100348.25;1729273;83;21066;-64
2021/05/28 04:48:29;;;;;;;16.23;12.25;;;;;;;19.59;76.49;100354.51;1709707;83;21511;-64
2021/05/28 04:50:55;;;;;;;17.75;11.85;;;;;;;19.65;76.63;100353.55;1729324;83;20991;-64
2021/05/28 04:53:22;;;;;;;13.05;11.43;;;;;;;19.73;76.66;100354.52;1709682;83;21067;-65
2021/05/28 04:55:49;;;;;;;14.38;10.70;;;;;;;19.81;76.44;100356.02;1729078;83;21035;-65
2021/05/28 04:58:15;;;;;;;15.45;10.18;;;;;;;19.89;76.07;100347.55;1709696;83;21051;-65
2021/05/28 05:00:43;;;;;;;13.10;9.53;;;;;;;19.90;75.93;100345.97;1728621;81;21090;-65
2021/05/28 05:03:10;;;;;;;15.32;9.08;;;;;;;19.96;75.68;100343.64;1708158;83;21062;-65
2021/05/28 05:05:38;;;;;;;14.65;8.90;;;;;;;20.06;75.41;100341.66;1736487;82;21671;-67
2021/05/28 05:08:05;;;;;;;13.32;8.33;;;;;;;20.17;75.10;100345.64;1706120;83;21022;-66
2021/05/28 05:10:32;;;;;;;16.17;8.20;;;;;;;20.28;74.77;100348.02;1722699;81;21028;-66
2021/05/28 05:12:59;;;;;;;18.48;7.62;;;;;;;20.36;74.03;100355.73;1722807;83;21022;-67
2021/05/28 05:15:25;;;;;;;12.63;7.45;;;;;;;20.44;73.62;100347.23;1722832;82;20996;-65
2021/05/28 05:17:52;;;;;;;11.65;6.90;;;;;;;20.53;73.11;100349.83;1722780;82;21087;-64
2021/05/28 05:20:18;;;;;;;10.72;6.70;;;;;;;20.59;72.52;100346.14;1743314;82;21475;-64
2021/05/28 05:22:45;;;;;;;10.85;6.95;;;;;;;20.65;71.98;100345.17;1743285;82;20984;-66
2021/05/28 05:25:12;;;;;;;12.60;7.22;;;;;;;20.71;71.61;100350.11;1741613;82;21067;-66
2021/05/28 05:27:40;;;;;;;12.10;6.00;;;;;;;20.75;71.32;100344.50;1687998;85;21063;-66
2021/05/28 05:30:09;;;;;;;7.70;5.80;;;;;;;20.80;70.67;100343.77;1715319;82;21070;-66
2021/05/28 05:32:35;;;;;;;20.32;6.92;;;;;;;20.84;70.24;100349.79;1715265;83;21475;-65
2021/05/28 05:35:01;;;;;;;13.78;8.33;;;;;;;20.85;70.21;100351.41;1688007;83;21022;-64
2021/05/28 05:37:28;;;;;;;12.75;9.65;;;;;;;20.87;70.21;100347.12;1719417;82;21034;-65
2021/05/28 05:39:55;;;;;;;11.83;6.60;;;;;;;20.88;69.99;100338.77;1719509;83;21054;-65
2021/05/28 05:42:24;;;;;;;13.43;7.58;;;;;;;20.87;69.73;100333.61;1729870;82;21212;-66
2021/05/28 05:44:51;;;;;;;14.90;7.35;;;;;;;20.90;69.53;100339.33;1720724;82;21079;-64
2021/05/28 05:47:17;;;;;;;14.07;7.58;;;;;;;20.97;69.64;100339.97;1712561;83;21042;-64
2021/05/28 05:49:44;;;;;;;16.62;7.65;;;;;;;21.06;69.72;100339.02;1699725;84;21106;-65
2021/05/28 05:52:10;;;;;;;12.55;7.70;;;;;;;21.13;69.59;100335.64;1712570;82;21005;-66
2021/05/28 05:54:38;;;;;;;13.08;6.45;;;;;;;21.18;69.30;100334.90;1699723;84;21018;-65
2021/05/28 05:57:06;;;;;;;19.32;7.20;;;;;;;21.22;69.06;100334.16;1684500;84;21000;-66
2021/05/28 05:59:33;;;;;;;11.43;6.40;;;;;;;21.28;68.81;100337.20;1712446;83;21538;-65
2021/05/28 06:02:02;;;;;;;5.83;4.90;;;;;;;21.31;68.33;100336.70;1700990;84;21078;-66
2021/05/28 06:04:28;;;;;;;10.82;6.45;;;;;;;21.35;67.81;100337.83;1699908;83;21007;-66
2021/05/28 06:06:54;;;;;;;8.43;5.70;;;;;;;21.40;67.44;100337.09;1699759;84;21044;-67
2021/05/28 06:09:21;;;;;;;11.00;6.58;;;;;;;21.42;67.23;100338.46;1699502;84;21098;-65
2021/05/28 06:11:51;;;;;;;10.15;6.78;;;;;;;21.43;67.11;100342.81;1699337;84;33429;-65
2021/05/28 06:14:18;;;;;;;13.35;7.37;;;;;;;21.47;67.11;100341.23;1699691;84;21058;-65
2021/05/28 06:16:45;;;;;;;11.60;5.80;;;;;;;21.52;66.87;100340.49;1699847;84;20946;-65
2021/05/28 06:19:11;;;;;;;11.18;5.50;;;;;;;21.60;66.53;100336.78;1699780;84;21132;-65
2021/05/28 06:21:39;;;;;;;9.10;4.42;;;;;;;21.72;65.66;100331.77;1701101;84;21077;-66
2021/05/28 06:24:08;;;;;;;14.47;5.70;;;;;;;21.83;64.81;100330.85;1699830;84;21039;-65
2021/05/28 06:26:34;;;;;;;18.85;6.15;;;;;;;21.98;63.94;100333.75;1699748;84;21022;-66
2021/05/28 06:29:03;;;;;;;11.65;5.33;;;;;;;22.15;64.31;100320.92;1699666;84;21058;-66
2021/05/28 06:31:30;;;;;;;8.50;5.25;;;;;;;22.36;63.58;100328.67;1699728;84;21651;-68
2021/05/28 06:33:57;;;;;;;11.40;5.90;;;;;;;22.55;63.33;100329.39;1712308;82;21015;-66
2021/05/28 06:36:25;;;;;;;8.18;4.75;;;;;;;22.76;62.67;100330.41;1712297;83;20999;-68
2021/05/28 06:38:52;;;;;;;11.38;5.20;;;;;;;22.93;61.65;100322.10;1729085;83;21110;-66
2021/05/28 06:41:19;;;;;;;15.70;5.25;;;;;;;23.05;60.93;100324.08;1712440;83;21011;-69
2021/05/28 06:43:46;;;;;;;6.90;4.60;;;;;;;23.13;60.53;100329.02;1724140;83;21882;-66
2021/05/28 06:46:13;;;;;;;15.38;4.87;;;;;;;23.19;59.99;100321.17;1687808;84;21106;-71
2021/05/28 06:48:42;;;;;;;13.80;4.92;;;;;;;23.23;59.67;100321.45;1694959;84;21547;-69
2021/05/28 06:51:09;;;;;;;8.48;4.28;;;;;;;23.25;59.26;100315.25;1695092;84;21019;-69
2021/05/28 06:53:36;;;;;;;10.80;3.60;;;;;;;23.24;58.87;100315.78;1751177;82;21475;-68
2021/05/28 06:56:04;;;;;;;10.45;4.10;;;;;;;23.25;58.47;100309.29;1751380;82;21593;-68
2021/05/28 06:58:31;;;;;;;10.18;4.62;;;;;;;23.22;58.19;100305.75;1751215;80;21014;-68
2021/05/28 07:00:59;;;;;;;13.20;4.40;;;;;;;23.23;58.06;100316.03;1751395;81;21455;-69
2021/05/28 07:03:26;;;;;;;7.40;4.17;;;;;;;23.22;57.67;100307.11;1761355;80;22034;-66
2021/05/28 07:05:53;;;;;;;12.00;4.60;;;;;;;23.23;57.44;100311.43;1782137;80;21121;-67
2021/05/28 07:08:19;;;;;;;9.03;3.92;;;;;;;23.21;57.01;100301.41;1782101;80;21156;-70
2021/05/28 07:10:48;;;;;;;9.80;3.92;;;;;;;23.21;56.62;100304.11;1782099;80;20947;-68
2021/05/28 07:13:14;;;;;;;10.50;3.70;;;;;;;23.18;56.82;100303.29;1782391;80;21476;-66
2021/05/28 07:15:42;;;;;;;10.38;4.40;;;;;;;23.16;56.79;100312.21;1781780;80;21598;-69
2021/05/28 07:18:09;;;;;;;10.95;4.30;;;;;;;23.15;57.12;100309.22;1782403;80;21078;-70
2021/05/28 07:20:36;;;;;;;11.93;4.17;;;;;;;23.15;57.31;100308.42;1780471;80;21708;-67
2021/05/28 07:23:03;;;;;;;8.80;3.70;;;;;;;23.17;57.15;100304.90;1782217;80;21102;-68
2021/05/28 07:25:29;;;;;;;11.18;4.95;;;;;;;23.20;56.23;100293.52;1782087;80;21109;-67
2021/05/28 07:27:58;;;;;;;14.05;5.65;;;;;;;23.21;56.63;100294.63;1782136;80;21125;-67
2021/05/28 07:30:26;;;;;;;10.38;4.00;;;;;;;23.25;56.81;100294.37;1783083;79;21100;-67
2021/05/28 07:32:53;;;;;;;8.30;4.03;;;;;;;23.31;56.51;100293.84;1778825;79;21861;-70
2021/05/28 07:35:20;;;;;;;13.25;4.22;;;;;;;23.37;56.64;100295.51;1750569;80;21083;-69
2021/05/28 07:37:47;;;;;;;10.68;4.10;;;;;;;23.43;56.28;100293.93;1739723;82;21594;-69
2021/05/28 07:40:28;;;;;;;11.40;4.40;;;;;;;23.48;55.43;100293.14;1738657;80;21122;-67
2021/05/28 07:42:47;;;;;;;31.15;4.78;;;;;;;23.57;55.61;100300.23;1715873;83;21618;-69
2021/05/28 07:45:16;;;;;;;8.45;4.62;;;;;;;23.64;55.03;100295.38;1720793;83;21042;-67
2021/05/28 07:47:43;;;;;;;8.13;3.77;;;;;;;23.71;54.55;100298.64;1720307;82;21014;-69
2021/05/28 07:50:11;;;;;;;8.73;4.15;;;;;;;23.75;54.07;100293.78;1720552;83;21032;-67
2021/05/28 07:52:38;;;;;;;5.60;3.10;;;;;;;23.80;53.13;100288.34;1720581;83;20976;-66
2021/05/28 07:55:06;;;;;;;9.25;3.45;;;;;;;23.87;52.15;100296.22;1720176;83;21532;-68
2021/05/28 07:57:33;;;;;;;7.00;3.30;;;;;;;23.94;51.88;100300.88;1720234;83;21066;-68
2021/05/28 08:00:00;;;;;;;5.78;2.80;;;;;;;24.02;51.11;100296.81;1691630;84;21082;-67
2021/05/28 08:02:26;;;;;;;5.75;3.20;;;;;;;24.09;49.63;100298.19;1720704;83;21011;-68
2021/05/28 08:04:54;;;;;;;6.25;3.58;;;;;;;24.20;48.67;100293.61;1720560;83;21080;-69
2021/05/28 08:07:21;;;;;;;5.78;3.05;;;;;;;24.31;48.29;100296.59;1720583;83;21090;-70
2021/05/28 08:09:49;;;;;;;5.50;3.60;;;;;;;24.42;48.12;100292.79;1720537;83;21072;-68
2021/05/28 08:12:19;;;;;;;6.40;3.47;;;;;;;24.52;47.35;100291.95;1720540;83;20955;-69
2021/05/28 08:14:47;;;;;;;10.45;3.90;;;;;;;24.60;47.77;100290.05;1720211;83;21062;-66
2021/05/28 08:17:14;;;;;;;8.33;5.08;;;;;;;24.67;48.67;100285.97;1719709;83;21049;-66
2021/05/28 08:19:40;;;;;;;8.20;2.80;;;;;;;24.76;48.05;100282.16;1715526;82;21619;-66
2021/05/28 08:22:07;;;;;;;8.58;5.40;;;;;;;24.83;47.09;100279.97;1720397;82;21897;-68
2021/05/28 08:24:33;;;;;;;16.27;4.72;;;;;;;24.90;46.52;100277.27;1720548;83;21087;-67
2021/05/28 08:27:00;;;;;;;5.03;3.10;;;;;;;24.99;46.48;100279.42;1686138;85;21623;-68
2021/05/28 08:29:27;;;;;;;5.22;3.10;;;;;;;25.06;46.64;100275.31;1703106;82;21511;-66
2021/05/28 08:31:54;;;;;;;8.08;3.60;;;;;;;25.16;45.98;100278.00;1702136;84;21548;-70
2021/05/28 08:34:21;;;;;;;18.95;6.60;;;;;;;25.26;46.00;100275.26;1719499;82;21662;-67
2021/05/28 08:36:50;;;;;;;7.00;3.98;;;;;;;25.33;45.57;100273.05;1730701;81;20935;-67
2021/05/28 08:39:18;;;;;;;7.72;4.03;;;;;;;25.43;44.76;100269.99;1704019;82;20939;-70
2021/05/28 08:41:46;;;;;;;5.72;3.47;;;;;;;25.52;44.25;100263.73;1733448;82;20990;-69
2021/05/28 08:44:23;;;;;;;9.83;5.15;;;;;;;25.63;43.62;100265.30;1792130;79;21015;-67
2021/05/28 08:46:46;;;;;;;13.25;7.80;;;;;;;25.78;44.04;100263.03;1789586;79;21663;-65
2021/05/28 08:49:13;;;;;;;9.35;5.58;;;;;;;25.90;43.51;100252.61;1775630;79;21138;-72
2021/05/28 08:51:39;;;;;;;10.90;6.12;;;;;;;26.04;43.71;100256.86;1769713;80;20995;-72
2021/05/28 08:54:06;;;;;;;11.38;5.33;;;;;;;26.17;43.87;100250.78;1768949;80;21591;-71
2021/05/28 08:56:33;;;;;;;9.23;4.53;;;;;;;26.29;44.21;100245.23;1774862;80;21031;-68
2021/05/28 08:59:00;;;;;;;12.20;4.05;;;;;;;26.39;44.85;100244.89;1770029;80;21494;-67
2021/05/28 09:01:26;;;;;;;8.55;3.02;;;;;;;26.48;44.59;100245.34;1771062;79;21082;-65
2021/05/28 09:04:02;;;;;;;15.95;9.38;;;;;;;26.59;44.92;100237.90;1751198;82;21066;-69
2021/05/28 09:06:46;;;;;;;7.58;4.60;;;;;;;26.70;45.09;100237.47;1751222;82;21015;-65
2021/05/28 09:09:18;;;;;;;9.50;4.10;;;;;;;26.83;44.99;100237.37;1751619;79;21058;-67
2021/05/28 09:12:05;;;;;;;5.80;3.77;;;;;;;26.95;45.34;100233.70;1751203;82;21409;-66
2021/05/28 09:14:45;;;;;;;4.83;3.25;;;;;;;27.03;45.86;100227.61;1760638;79;20988;-70
2021/05/28 09:17:12;;;;;;;9.75;3.92;;;;;;;27.13;46.11;100228.84;1795120;79;21058;-67
2021/05/28 09:19:39;;;;;;;9.20;4.80;;;;;;;27.23;46.02;100224.61;1795575;79;21019;-69
2021/05/28 09:22:09;;;;;;;6.60;3.80;;;;;;;27.35;46.01;100231.01;1795558;79;21035;-67
2021/05/28 09:24:39;;;;;;;15.20;8.95;;;;;;;27.46;45.99;100230.34;1715083;82;21151;-64
2021/05/28 09:27:33;;;;;;;10.55;5.45;;;;;;;27.58;45.70;100224.72;1781716;80;20967;-66
2021/05/28 09:30:12;;;;;;;13.28;6.17;;;;;;;27.70;44.98;100225.64;1781831;80;21451;-65
2021/05/28 09:32:47;;;;;;;18.25;7.40;;;;;;;27.83;43.73;100226.82;1781792;80;21032;-65
2021/05/28 09:35:15;;;;;;;;;;;;;;;27.84;43.29;100221.05;1748867;80;20984;-65
2021/05/28 09:37:51;;;;;;;10.95;3.65;;;;;;;27.88;42.99;100222.63;1732195;82;21086;-64
2021/05/28 09:40:29;;;;;;;30.50;4.40;;;;;;;27.97;42.75;100217.58;1732599;82;21059;-65
2021/05/28 09:43:00;;;;;;;7.95;4.50;;;;;;;28.02;42.17;100222.97;1732519;82;21512;-65
2021/05/28 09:45:35;;;;;;;9.13;4.78;;;;;;;28.15;42.15;100214.57;1687497;83;21499;-65
2021/05/28 09:48:04;;;;;;;24.40;4.55;;;;;;;28.33;41.99;100210.16;1732228;82;21618;-65
2021/05/28 09:50:35;;;;;;;12.58;5.47;;;;;;;28.53;41.16;100205.69;1732154;82;21055;-65
2021/05/28 09:53:04;;;;;;;9.00;4.53;;;;;;;28.70;41.01;100197.75;1732093;82;21126;-64
2021/05/28 09:55:32;;;;;;;13.22;5.05;;;;;;;28.90;40.12;100195.15;1721128;81;21070;-64
2021/05/28 09:58:00;;;;;;;15.50;4.20;;;;;;;29.05;39.57;100183.33;1738678;81;21642;-66
2021/05/28 10:00:35;;;;;;;8.98;3.70;;;;;;;29.24;39.09;100187.86;1741948;82;21602;-63
2021/05/28 10:03:19;;;;;;;13.18;6.72;;;;;;;29.38;38.72;100184.03;1713005;82;21805;-57
2021/05/28 10:05:53;;;;;;;17.40;8.28;;;;;;;29.52;38.34;100183.43;1791812;78;20952;-65
2021/05/28 10:08:23;;;;;;;6.83;3.20;;;;;;;29.66;38.71;100182.00;1729115;81;21504;-64
2021/05/28 10:10:52;;;;;;;8.98;2.98;;;;;;;29.81;37.32;100180.82;1709466;84;21019;-64
2021/05/28 10:13:22;;;;;;;16.87;3.22;;;;;;;29.88;37.10;100179.30;1765745;80;21062;-64
2021/05/28 10:15:52;;;;;;;9.03;2.87;;;;;;;30.02;36.72;100177.32;1767550;80;21095;-64
2021/05/28 10:18:19;;;;;;;11.78;3.30;;;;;;;30.20;35.76;100174.11;1698748;84;20972;-65
2021/05/28 10:20:49;;;;;;;15.38;2.90;;;;;;;30.40;35.43;100165.33;1764815;81;20987;-68
2021/05/28 10:23:17;;;;;;;8.98;2.30;;;;;;;30.53;34.30;100156.80;1765178;81;21555;-66
2021/05/28 10:25:45;;;;;;;21.27;2.95;;;;;;;30.61;34.21;100162.87;1767288;81;21071;-66
2021/05/28 10:28:21;;;;;;;13.43;3.45;;;;;;;30.71;33.95;100161.21;1768690;81;21099;-66
2021/05/28 10:30:50;;;;;;;6.40;2.60;;;;;;;30.85;33.50;100156.44;1768887;81;20963;-66
2021/05/28 10:33:33;;;;;;;18.10;2.98;;;;;;;31.04;31.90;100152.87;1768521;81;20999;-66
2021/05/28 10:36:07;;;;;;;6.42;2.30;;;;;;;31.10;32.03;100147.22;1749201;81;21572;-67
2021/05/28 10:38:47;;;;;;;9.80;2.33;;;;;;;31.22;31.03;100148.77;1750062;81;21039;-68
2021/05/28 10:41:27;;;;;;;9.50;2.40;;;;;;;31.35;31.08;100150.55;1768387;80;21000;-67
2021/05/28 10:44:03;;;;;;;4.25;2.20;;;;;;;31.66;30.29;100156.72;1768414;81;20975;-67
2021/05/28 10:46:30;;;;;;;6.85;2.20;;;;;;;32.28;29.76;100154.38;1749060;81;20984;-66
2021/05/28 10:49:04;;;;;;;9.03;2.30;;;;;;;32.61;29.30;100157.34;1768896;81;20932;-65
2021/05/28 10:51:38;;;;;;;11.80;2.52;;;;;;;32.57;28.25;100160.48;1768544;80;20928;-65
2021/05/28 10:54:19;;;;;;;5.10;2.52;;;;;;;32.34;28.61;100170.12;1768786;81;21345;-66
2021/05/28 10:56:46;;;;;;;15.65;2.87;;;;;;;32.18;28.32;100160.22;1768925;81;21483;-66
2021/05/28 10:59:14;;;;;;;10.28;2.87;;;;;;;32.32;28.38;100161.41;1769091;81;20983;-67
2021/05/28 11:01:57;;;;;;;12.60;3.15;;;;;;;32.43;28.07;100161.28;1759248;81;21067;-65
2021/05/28 11:04:32;;;;;;;10.80;2.85;;;;;;;32.54;28.65;100150.14;1743856;80;21003;-66
2021/05/28 11:07:05;;;;;;;12.37;3.30;;;;;;;32.41;28.64;100149.78;1762863;80;21907;-67
2021/05/28 11:09:40;;;;;;;10.48;4.65;;;;;;;32.05;29.07;100146.64;1752336;79;21098;-66
2021/05/28 11:12:11;;;;;;;13.40;5.10;;;;;;;31.56;29.83;100140.58;1715494;83;21004;-67
2021/05/28 11:14:40;;;;;;;28.65;9.03;;;;;;;31.04;30.07;100140.53;1748989;82;21041;-66
2021/05/28 11:17:10;;;;;;;17.52;6.47;;;;;;;30.52;30.34;100135.97;1715051;83;20968;-66
2021/05/28 11:19:45;;;;;;;9.18;5.42;;;;;;;30.01;31.14;100137.32;1748421;82;21085;-67
2021/05/28 11:22:34;;;;;;;13.75;4.92;;;;;;;29.57;32.58;100135.36;1686195;85;21069;-66
2021/05/28 11:25:06;;;;;;;27.48;5.55;;;;;;;29.16;34.08;100134.66;1715039;83;21063;-66
2021/05/28 11:27:36;;;;;;;30.08;6.20;;;;;;;28.76;35.32;100134.17;1748663;81;21034;-66